Latest Weather Observations for Pirlangimpi

IDD60901

Issued at 4:41 pm CST Monday 25 October 2021 (issued every 10 minutes, with the page automatically refreshed every 10 minutes)

About weather observations | Map of Darwin area stations | Latest observations for Darwin area | Other Formats
Station Details ID: 014142 Name: PIRLANGIMPI AIRPORT Lat: -11.40 Lon: 130.42 Height: 18.3 m
Data from the previous 72 hours. | See also: Recent months at Pirlangimpi
Date/Time
CST
Temp
°C
App
Temp
°C
Dew
Point
°C
Rel
Hum
%
Delta-T
°C
Wind Press
QNH
hPa
Press
MSL
hPa
Rain since
9am
mm
Dir  Spd
km/h
Gust
km/h
Spd
kts
Gust
kts
25/04:30pm 31.2 34.4 23.0 61 5.6 NW 11 20 6 11 1008.4 1008.3 0.0
25/04:00pm 31.6 34.5 23.2 61 5.8 NW 13 30 7 16 1008.2 1008.1 0.0
25/03:30pm 33.6 36.2 22.7 53 7.5 NW 13 26 7 14 1008.3 1008.2 0.0
25/03:00pm 33.8 36.4 22.6 52 7.7 NW 13 22 7 12 1008.5 1008.4 0.0
25/02:30pm 33.7 36.2 23.1 54 7.3 NW 15 24 8 13 1009.0 1008.9 0.0
25/02:00pm 32.4 34.9 22.5 56 6.8 NW 13 22 7 12 1009.4 1009.3 0.0
25/01:30pm 33.0 36.4 22.7 54 7.1 NW 9 17 5 9 1009.9 1009.8 0.0
25/01:00pm 32.7 35.8 22.2 54 7.2 WNW 9 17 5 9 1010.4 1010.3 0.0
25/12:30pm 33.5 36.9 22.0 51 7.8 W 7 13 4 7 1010.7 1010.6 0.0
25/12:00pm 32.7 35.4 22.2 54 7.2 SSW 11 15 6 8 1011.2 1011.1 0.0
25/11:30am 31.9 34.9 22.0 55 6.7 SSW 9 15 5 8 1011.5 1011.4 0.0
25/11:00am 31.7 34.4 22.1 56 6.5 SSW 11 15 6 8 1011.8 1011.7 0.0
25/10:30am 31.9 35.5 23.7 62 5.7 SSW 11 15 6 8 1012.1 1012.0 0.0
25/10:00am 31.0 34.8 23.4 64 5.2 SSW 9 11 5 6 1012.4 1012.3 0.0
25/09:30am 30.1 34.4 23.3 67 4.7 SSW 6 9 3 5 1012.3 1012.2 0.0
25/09:00am 30.8 35.4 24.2 68 4.6 SW 7 11 4 6 1012.2 1012.1 0.0
25/08:30am 29.6 34.4 24.2 72 3.8 S 6 9 3 5 1012.1 1012.0 0.0
25/08:00am 28.3 33.4 24.7 81 2.5 SSE 6 6 3 3 1011.8 1011.7 0.0
25/07:30am 27.5 33.0 24.6 84 2.0 SSE 4 6 2 3 1011.5 1011.4 0.0
25/07:00am 26.1 32.0 24.7 92 1.0 SE 2 4 1 2 1011.2 1011.1 0.0
25/06:30am 25.4 31.4 24.2 93 0.8 CALM 0 0 0 0 1011.2 1011.1 0.0
25/06:00am 25.5 31.1 24.3 93 0.8 SE 2 4 1 2 1010.8 1010.7 0.0
25/05:30am 25.3 30.6 24.3 94 0.7 SE 4 6 2 3 1010.6 1010.5 0.0
25/05:00am 24.9 30.6 23.7 93 0.8 CALM 0 0 0 0 1010.1 1010.0 0.0
25/04:30am 24.9 30.5 23.5 92 1.0 CALM 0 0 0 0 1009.9 1009.8 0.0
25/04:00am 24.9 30.3 23.3 91 1.1 CALM 0 0 0 0 1009.7 1009.6 0.0
25/03:30am 24.9 30.2 23.1 90 1.2 CALM 0 0 0 0 1009.7 1009.6 0.0
25/03:00am 25.0 30.3 23.1 89 1.3 CALM 0 0 0 0 1009.7 1009.6 0.0
25/02:30am 24.9 30.2 23.0 89 1.3 CALM 0 0 0 0 1010.0 1009.9 0.0
25/02:00am 25.0 30.2 22.9 88 1.4 CALM 0 0 0 0 1009.9 1009.8 0.0
25/01:30am 25.3 30.6 23.0 87 1.6 CALM 0 0 0 0 1010.1 1010.0 0.0
25/01:00am 25.4 30.7 23.1 87 1.6 CALM 0 0 0 0 1010.3 1010.2 0.0
25/12:30am 25.5 30.7 22.8 85 1.8 CALM 0 0 0 0 1010.4 1010.3 0.0
25/12:00am 25.5 30.7 22.8 85 1.8 CALM 0 0 0 0 1010.4 1010.3 0.0
 
Date/Time
CST
Temp
°C
App
Temp
°C
Dew
Point
°C
Rel
Hum
%
Delta-T
°C
Wind Press
QNH
hPa
Press
MSL
hPa
Rain since
9am
mm
Dir  Spd
km/h
Gust
km/h
Spd
kts
Gust
kts
24/11:30pm 25.6 30.7 22.7 84 2.0 CALM 0 0 0 0 1010.5 1010.4 0.0
24/11:00pm 25.6 30.3 22.7 84 2.0 NE 2 4 1 2 1010.7 1010.6 0.0
24/10:30pm 25.5 30.0 22.2 82 2.2 NE 2 2 1 1 1010.8 1010.7 0.0
24/10:00pm 25.8 30.7 22.3 81 2.4 CALM 0 0 0 0 1010.8 1010.7 0.0
24/09:30pm 26.0 30.9 22.3 80 2.5 CALM 0 0 0 0 1011.1 1011.0 0.0
24/09:00pm 26.2 31.2 22.5 80 2.5 CALM 0 0 0 0 1011.0 1010.9 0.0
24/08:30pm 26.4 31.1 22.0 77 2.9 CALM 0 0 0 0 1010.9 1010.8 0.0
24/08:00pm 26.6 31.2 21.8 75 3.2 CALM 0 0 0 0 1010.7 1010.6 0.0
24/07:30pm 26.9 31.4 21.6 72 3.5 CALM 0 0 0 0 1010.5 1010.4 0.0
24/07:00pm 27.8 32.4 21.8 70 4.0 CALM 0 0 0 0 1010.7 1010.6 0.0
24/06:30pm 28.2 31.8 22.0 69 4.2 S 6 9 3 5 1010.4 1010.3 0.0
24/06:00pm 28.1 31.9 21.6 68 4.4 SW 4 9 2 5 1010.2 1010.1 0.0
24/05:30pm 27.3 31.1 21.6 71 3.8 WSW 4 9 2 5 1010.1 1010.0 0.0
24/05:00pm 27.4 31.1 22.6 75 3.3 S 7 9 4 5 1010.1 1010.0 0.0
24/04:30pm 28.0 30.4 22.9 74 3.5 S 15 24 8 13 1010.0 1009.9 0.0
24/04:00pm 30.8 32.5 21.0 56 6.6 ESE 13 35 7 19 1009.7 1009.6 0.0
24/03:30pm 34.2 35.9 20.2 43 9.4 NNE 11 19 6 10 1008.9 1008.8 0.0
24/03:00pm 34.9 36.8 20.5 43 9.7 NNE 11 20 6 11 1008.9 1008.8 0.0
24/02:30pm 35.4 37.6 20.5 41 10.0 NE 9 17 5 9 1009.3 1009.2 0.0
24/02:00pm 35.4 37.3 19.7 39 10.4 ENE 9 17 5 9 1009.7 1009.6 0.0
24/01:30pm 35.6 37.8 20.3 40 10.3 NNE 9 19 5 10 1010.2 1010.1 0.0
24/01:00pm 36.0 37.6 20.7 41 10.3 ENE 13 20 7 11 1010.8 1010.7 0.0
24/12:30pm 36.6 36.8 18.6 34 11.8 E 15 28 8 15 1011.0 1010.9 0.0
24/12:00pm 35.2 36.2 18.7 37 10.8 ENE 11 22 6 12 1011.4 1011.3 0.0
24/11:30am 34.6 36.9 21.3 46 9.0 ENE 11 19 6 10 1011.7 1011.6 0.0
24/11:00am 34.5 37.5 21.9 48 8.6 E 9 13 5 7 1012.0 1011.9 0.0
24/10:30am 33.3 36.4 21.1 48 8.2 N 6 13 3 7 1012.0 1011.9 0.0
24/10:00am 32.9 36.9 22.7 55 7.0 NE 6 11 3 6 1012.1 1012.0 0.0
24/09:30am 32.9 36.5 23.0 56 6.8 NE 9 15 5 8 1012.0 1011.9 0.0
24/09:00am 31.1 35.2 23.2 63 5.4 N 7 13 4 7 1011.7 1011.6 0.0
24/08:30am 30.7 35.4 23.9 67 4.7 NNE 6 13 3 7 1011.4 1011.3 0.0
24/08:00am 29.7 36.3 25.2 77 3.2 CALM 0 4 0 2 1011.3 1011.2 0.0
24/07:30am 26.9 33.0 25.1 90 1.3 N 2 2 1 1 1011.1 1011.0 0.0
24/07:00am 24.8 30.5 23.8 94 0.7 CALM 0 2 0 1 1011.0 1010.9 0.0
24/06:30am 24.5 29.4 23.1 92 0.9 ENE 2 4 1 2 1011.1 1011.0 0.0
24/06:00am 24.8 30.4 23.6 93 0.8 CALM 0 0 0 0 1011.3 1011.2 0.0
24/05:30am 25.1 30.5 23.3 90 1.2 CALM 0 0 0 0 1011.4 1011.3 0.0
24/05:00am 25.5 30.4 23.7 90 1.2 SE 4 6 2 3 1011.2 1011.1 0.0
24/04:30am 25.1 29.9 23.5 91 1.1 SE 4 6 2 3 1011.0 1010.9 0.0
24/04:00am 24.7 29.5 22.9 90 1.2 ESE 2 6 1 3 1011.2 1011.1 0.0
24/03:30am 24.8 30.0 22.9 89 1.3 CALM 0 0 0 0 1010.7 1010.6 0.0
24/03:00am 25.2 30.6 23.3 89 1.3 CALM 0 0 0 0 1010.8 1010.7 0.0
24/02:30am 25.3 30.8 23.4 89 1.3 CALM 0 0 0 0 1011.2 1011.1 0.0
24/02:00am 25.4 30.2 23.5 89 1.3 ENE 4 6 2 3 1011.3 1011.2 0.0
24/01:30am 25.3 30.0 23.4 89 1.3 NE 4 6 2 3 1011.1 1011.0 0.0
24/01:00am 25.2 29.9 23.4 90 1.2 NE 4 4 2 2 1011.3 1011.2 0.0
24/12:30am 25.3 30.4 23.4 89 1.3 NE 2 6 1 3 1011.6 1011.5 0.0
24/12:00am 25.7 31.2 23.4 87 1.6 CALM 0 0 0 0 1012.0 1011.9 0.0
 
Date/Time
CST
Temp
°C
App
Temp
°C
Dew
Point
°C
Rel
Hum
%
Delta-T
°C
Wind Press
QNH
hPa
Press
MSL
hPa
Rain since
9am
mm
Dir  Spd
km/h
Gust
km/h
Spd
kts
Gust
kts
23/11:30pm 26.0 31.7 23.7 87 1.6 CALM 0 0 0 0 1012.6 1012.5 0.0
23/11:00pm 25.9 31.5 23.6 87 1.6 CALM 0 0 0 0 1012.4 1012.3 0.0
23/10:30pm 26.3 31.9 23.6 85 1.8 CALM 0 0 0 0 1012.3 1012.2 0.0
23/10:00pm 26.6 32.3 23.7 84 2.0 CALM 0 0 0 0 1012.1 1012.0 0.0
23/09:30pm 27.1 32.7 23.6 81 2.4 CALM 0 0 0 0 1012.2 1012.1 0.0
23/09:00pm 27.7 32.9 23.5 78 2.9 ENE 2 4 1 2 1011.9 1011.8 0.0
23/08:30pm 28.5 33.5 23.9 76 3.2 SE 4 6 2 3 1011.6 1011.5 0.0
23/08:00pm 29.3 34.5 23.5 71 4.0 NW 2 6 1 3 1011.4 1011.3 0.0
23/07:30pm 29.4 34.6 23.6 71 4.0 NNW 2 6 1 3 1010.7 1010.6 0.0
23/07:00pm 29.6 34.4 23.5 69 4.2 WNW 4 7 2 4 1010.4 1010.3 0.0
23/06:30pm 30.1 34.2 23.3 67 4.7 NW 7 11 4 6 1009.9 1009.8 0.0
23/06:00pm 30.6 34.7 23.3 65 5.0 WNW 7 13 4 7 1009.9 1009.8 0.0
23/05:30pm 31.7 35.3 23.8 63 5.5 NW 11 19 6 10 1009.6 1009.5 0.0
23/05:00pm 32.0 35.3 23.8 62 5.7 NW 13 22 7 12 1009.4 1009.3 0.0
23/04:30pm 32.5 35.5 24.0 61 5.9 NW 15 24 8 13 1009.1 1009.0 0.0
23/04:00pm 32.9 36.2 23.8 58 6.3 NW 13 22 7 12 1009.4 1009.3 0.0
23/03:30pm 33.9 37.6 23.9 56 7.0 NW 11 24 6 13 1009.5 1009.4 0.0
23/03:00pm 34.5 37.5 22.6 50 8.2 NW 11 17 6 9 1009.7 1009.6 0.0
23/02:30pm 32.8 35.5 22.9 56 6.8 NW 13 26 7 14 1010.0 1009.9 0.0
23/02:00pm 33.5 36.4 23.2 54 7.1 WNW 13 22 7 12 1010.4 1010.3 0.0
23/01:30pm 33.7 36.7 23.4 55 7.2 NW 13 22 7 12 1010.7 1010.6 0.0
23/01:00pm 34.2 38.1 24.2 56 7.0 NW 11 22 6 12 1011.1 1011.0 0.0
23/12:30pm 34.0 37.6 24.3 57 6.8 NW 13 20 7 11 1011.6 1011.5 0.0
23/12:00pm 33.8 37.6 24.1 57 6.8 NW 11 19 6 10 1011.9 1011.8 0.0
23/11:30am 33.3 37.4 23.9 58 6.6 WNW 9 17 5 9 1012.4 1012.3 0.0
23/11:00am 32.7 36.8 23.9 60 6.1 NW 9 19 5 10 1012.6 1012.5 0.0
23/10:30am 32.5 37.2 24.3 62 5.7 WNW 7 15 4 8 1012.7 1012.6 0.0
23/10:00am 33.6 37.4 22.4 52 7.7 NNW 6 11 3 6 1012.8 1012.7 0.0
23/09:30am 32.1 36.2 23.3 59 6.1 N 7 15 4 8 1012.9 1012.8 0.0
23/09:00am 31.4 36.0 23.8 64 5.3 N 6 11 3 6 1012.7 1012.6 0.0
23/08:30am 30.5 35.4 24.6 70 4.1 NNW 7 11 4 6 1012.5 1012.4 0.0
23/08:00am 29.5 35.1 24.8 76 3.3 N 4 9 2 5 1012.3 1012.2 0.0
23/07:30am 28.3 34.3 24.9 82 2.4 N 2 4 1 2 1011.9 1011.8 0.0
23/07:00am 26.6 32.4 24.6 89 1.4 NNE 2 6 1 3 1011.7 1011.6 0.0
23/06:30am 26.0 31.3 24.4 91 1.1 NNE 4 9 2 5 1011.3 1011.2 0.0
23/06:00am 26.0 31.3 24.4 91 1.1 NNE 4 7 2 4 1011.0 1010.9 0.0
23/05:30am 25.7 31.1 24.5 93 0.8 NNE 4 6 2 3 1011.0 1010.9 0.0
23/05:00am 25.4 31.1 23.8 91 1.1 CALM 0 0 0 0 1010.8 1010.7 0.0
23/04:30am 25.5 31.3 23.9 91 1.1 CALM 0 0 0 0 1010.5 1010.4 0.0
23/04:00am 25.8 31.0 24.2 91 1.1 NE 4 6 2 3 1010.3 1010.2 0.0
23/03:30am 25.6 30.8 24.2 92 1.0 NE 4 6 2 3 1010.3 1010.2 0.0
23/03:00am 25.8 31.5 24.4 92 1.0 NNE 2 4 1 2 1010.4 1010.3 0.0
23/02:30am 25.8 31.3 24.0 90 1.2 NE 2 4 1 2 1010.4 1010.3 0.0
23/02:00am 26.1 31.6 24.1 89 1.4 NNE 2 4 1 2 1010.6 1010.5 0.0
23/01:30am 26.3 32.3 24.2 88 1.4 CALM 0 2 0 1 1010.8 1010.7 0.0
23/01:00am 26.4 32.0 24.2 88 1.5 N 2 6 1 3 1010.9 1010.8 0.0
23/12:30am 26.5 32.1 24.2 87 1.6 NE 2 2 1 1 1011.1 1011.0 0.0
23/12:00am 27.0 33.0 24.3 85 1.9 CALM 0 0 0 0 1011.4 1011.3 0.0
 
Date/Time
CST
Temp
°C
App
Temp
°C
Dew
Point
°C
Rel
Hum
%
Delta-T
°C
Wind Press
QNH
hPa
Press
MSL
hPa
Rain since
9am
mm
Dir  Spd
km/h
Gust
km/h
Spd
kts
Gust
kts
22/11:30pm 27.4 33.3 24.1 82 2.3 CALM 0 0 0 0 1011.4 1011.3 0.0
22/11:00pm 28.1 34.0 24.1 79 2.8 CALM 0 0 0 0 1011.6 1011.5 0.0
22/10:30pm 28.5 34.4 24.1 77 3.0 CALM 0 4 0 2 1011.6 1011.5 0.0
22/10:00pm 28.8 33.9 24.1 76 3.3 NE 4 6 2 3 1011.5 1011.4 0.0
22/09:30pm 29.1 34.7 24.2 75 3.4 NNE 2 4 1 2 1011.3 1011.2 0.0
22/09:00pm 29.4 34.9 24.0 72 3.7 N 2 6 1 3 1011.3 1011.2 0.0
22/08:30pm 29.6 35.2 24.2 72 3.8 N 2 7 1 4 1010.9 1010.8 0.0
22/08:00pm 29.6 34.4 24.2 72 3.8 NNW 6 13 3 7 1010.1 1010.0 0.0
22/07:30pm 29.7 34.3 24.1 72 3.9 NNW 7 11 4 6 1009.8 1009.7 0.0
22/07:00pm 29.9 34.9 24.5 73 3.8 NNW 6 11 3 6 1009.4 1009.3 0.0
22/06:30pm 30.2 34.8 24.1 70 4.2 NW 7 15 4 8 1008.8 1008.7 0.0
22/06:00pm 31.2 34.8 23.8 64 5.1 NNW 11 19 6 10 1008.8 1008.7 0.0
22/05:30pm 31.7 35.4 23.2 60 5.9 NW 9 17 5 9 1008.9 1008.8 0.0
22/05:00pm 32.0 35.7 23.3 60 6.0 NNW 9 20 5 11 1008.6 1008.5 0.0

Latest Capital City Observations: Canberra | Sydney | Melbourne | Brisbane | Adelaide | Perth | Hobart | Darwin

Other formats

Comma delimited format used in spreadsheet applications
http://www.bom.gov.au/fwo/IDD60901/IDD60901.94119.axf

JavaScript Object Notation format (JSON) in row-major order
http://www.bom.gov.au/fwo/IDD60901/IDD60901.94119.json

Data quality

Most of these data are generated automatically and are frequently updated. Quality checks on data are not normally performed. It is possible for incorrect values to appear. Refer to information at About Latest Weather Observations and please check the disclaimer before using these data.